Time;durP1;ratioP1;P1;durP2;ratioP2;P2;SDS_P1;SDS_P2;PMS_P1;PMS_P2;Temp;Humidity;BMP_temperature;BMP_pressure;BME280_temperature;BME280_humidity;BME280_pressure;Samples;Min_cycle;Max_cycle;Signal;HPM_P1;HPM_P2
2022/05/01 00:02:16;;;;;;;20.63;10.90;;;;;;;;;;5006613;28;20133;-65
2022/05/01 00:04:45;;;;;;;19.25;10.10;;;;;;;;;;5009326;28;20065;-66
2022/05/01 00:07:15;;;;;;;21.70;11.70;;;;;;;;;;5006890;28;20042;-65
2022/05/01 00:09:44;;;;;;;19.30;10.98;;;;;;;;;;5005442;28;20201;-65
2022/05/01 00:12:13;;;;;;;19.48;11.32;;;;;;;;;;5002909;28;20112;-66
2022/05/01 00:14:41;;;;;;;18.23;10.55;;;;;;;;;;5012186;28;20069;-66
2022/05/01 00:17:09;;;;;;;17.70;10.77;;;;;;;;;;5007150;28;20137;-65
2022/05/01 00:19:37;;;;;;;20.23;11.30;;;;;;;;;;4997852;28;20081;-66
2022/05/01 00:22:21;;;;;;;20.40;10.98;;;;;;;;;;5010800;28;20049;-66
2022/05/01 00:24:49;;;;;;;19.95;10.63;;;;;;;;;;5001507;28;20129;-66
2022/05/01 00:27:17;;;;;;;19.27;11.25;;;;;;;;;;5009019;28;20140;-67
2022/05/01 00:29:46;;;;;;;20.90;11.65;;;;;;;;;;5008693;28;20169;-66
2022/05/01 00:32:15;;;;;;;23.75;11.38;;;;;;;;;;5008186;28;20046;-65
2022/05/01 00:37:39;;;;;;;19.48;11.18;;;;;;;;;;4971226;28;20151;-67
2022/05/01 00:40:08;;;;;;;19.52;11.23;;;;;;;;;;5006583;28;20053;-65
2022/05/01 00:42:36;;;;;;;20.98;10.80;;;;;;;;;;4999195;28;20112;-66
2022/05/01 00:45:04;;;;;;;21.65;11.27;;;;;;;;;;5009684;28;20145;-66
2022/05/01 00:47:33;;;;;;;19.35;10.32;;;;;;;;;;5008760;28;20124;-66
2022/05/01 00:50:01;;;;;;;21.50;11.25;;;;;;;;;;5007303;28;20128;-66
2022/05/01 00:52:29;;;;;;;18.60;10.50;;;;;;;;;;5005814;28;20042;-66
2022/05/01 00:54:59;;;;;;;21.38;10.75;;;;;;;;;;5008310;28;20116;-66
2022/05/01 00:57:27;;;;;;;20.90;11.13;;;;;;;;;;5006426;28;20612;-66
2022/05/01 00:59:56;;;;;;;18.73;10.27;;;;;;;;;;5007171;28;20050;-65
2022/05/01 01:02:25;;;;;;;20.45;10.65;;;;;;;;;;4999516;28;20514;-67
2022/05/01 01:04:53;;;;;;;21.55;11.25;;;;;;;;;;5009362;28;20054;-65
2022/05/01 01:07:21;;;;;;;18.40;10.18;;;;;;;;;;5005210;28;20132;-66
2022/05/01 01:09:50;;;;;;;19.88;10.63;;;;;;;;;;5008158;28;20558;-66
2022/05/01 01:15:10;;;;;;;21.08;11.27;;;;;;;;;;5000817;28;20074;-66
2022/05/01 01:17:40;;;;;;;20.40;10.70;;;;;;;;;;5005176;28;20514;-66
2022/05/01 01:20:12;;;;;;;18.55;10.23;;;;;;;;;;5001906;28;20177;-66
2022/05/01 01:22:43;;;;;;;19.00;10.43;;;;;;;;;;5008294;28;20534;-66
2022/05/01 01:25:11;;;;;;;18.80;9.40;;;;;;;;;;5009197;28;20042;-66
2022/05/01 01:27:40;;;;;;;19.00;10.15;;;;;;;;;;5007066;28;20572;-66
2022/05/01 01:32:55;;;;;;;21.70;9.57;;;;;;;;;;5001600;28;20084;-65
2022/05/01 01:35:24;;;;;;;19.15;10.15;;;;;;;;;;5005116;28;20038;-66
2022/05/01 01:37:55;;;;;;;18.52;9.35;;;;;;;;;;5000915;28;20541;-65
2022/05/01 01:40:24;;;;;;;17.98;9.02;;;;;;;;;;5004673;28;20479;-66
2022/05/01 01:42:54;;;;;;;16.73;9.27;;;;;;;;;;4995761;28;20057;-65
2022/05/01 01:45:22;;;;;;;18.73;9.55;;;;;;;;;;5002939;28;20046;-66
2022/05/01 01:47:51;;;;;;;17.80;9.68;;;;;;;;;;4997528;28;20567;-65
2022/05/01 01:50:19;;;;;;;21.13;10.70;;;;;;;;;;5008093;28;20450;-65
2022/05/01 01:52:48;;;;;;;18.42;10.52;;;;;;;;;;5008574;28;20517;-65
2022/05/01 01:55:18;;;;;;;19.27;10.05;;;;;;;;;;5005876;28;20078;-66
2022/05/01 01:57:46;;;;;;;19.73;10.73;;;;;;;;;;5004977;28;20145;-65
2022/05/01 02:00:15;;;;;;;18.25;9.95;;;;;;;;;;5005062;28;20145;-65
2022/05/01 02:02:45;;;;;;;20.23;10.25;;;;;;;;;;4996181;28;20074;-65
2022/05/01 02:05:15;;;;;;;19.73;10.60;;;;;;;;;;5004656;28;20066;-65
2022/05/01 02:07:44;;;;;;;16.88;9.30;;;;;;;;;;4998882;28;20141;-66
2022/05/01 02:10:12;;;;;;;21.25;10.07;;;;;;;;;;5006916;28;20145;-65
2022/05/01 02:12:42;;;;;;;22.60;9.65;;;;;;;;;;5006082;28;20077;-65
2022/05/01 02:15:10;;;;;;;19.85;10.00;;;;;;;;;;5006570;28;20050;-65
2022/05/01 02:17:39;;;;;;;18.48;8.45;;;;;;;;;;5006850;28;20054;-66
2022/05/01 02:20:08;;;;;;;18.92;9.80;;;;;;;;;;5001494;28;20103;-66
2022/05/01 02:22:38;;;;;;;18.67;10.13;;;;;;;;;;5003085;28;20501;-65
2022/05/01 02:25:07;;;;;;;23.55;11.18;;;;;;;;;;5006952;28;20116;-65
2022/05/01 02:27:36;;;;;;;17.02;9.85;;;;;;;;;;5006728;28;20549;-65
2022/05/01 02:30:06;;;;;;;20.73;10.25;;;;;;;;;;5005397;28;20065;-65
2022/05/01 02:32:37;;;;;;;18.52;10.35;;;;;;;;;;4997876;28;20494;-65
2022/05/01 02:35:05;;;;;;;18.55;10.57;;;;;;;;;;5003445;28;20385;-65
2022/05/01 02:37:34;;;;;;;16.88;9.75;;;;;;;;;;5006007;28;20140;-65
2022/05/01 02:40:02;;;;;;;21.60;10.88;;;;;;;;;;5005915;28;20129;-66
2022/05/01 02:42:30;;;;;;;25.17;10.98;;;;;;;;;;5000729;28;20406;-65
2022/05/01 02:44:59;;;;;;;20.38;10.90;;;;;;;;;;5000933;28;20050;-66
2022/05/01 02:47:29;;;;;;;19.17;10.38;;;;;;;;;;5000060;28;20050;-66
2022/05/01 02:49:57;;;;;;;19.83;10.07;;;;;;;;;;5006235;28;20375;-65
2022/05/01 02:52:26;;;;;;;20.42;10.48;;;;;;;;;;5005319;28;20081;-65
2022/05/01 02:54:54;;;;;;;21.67;10.25;;;;;;;;;;5004513;28;20085;-66
2022/05/01 02:57:23;;;;;;;19.13;10.77;;;;;;;;;;5004958;28;20541;-65
2022/05/01 02:59:51;;;;;;;21.58;10.75;;;;;;;;;;5005721;28;20135;-66
2022/05/01 03:02:20;;;;;;;20.83;10.70;;;;;;;;;;4997692;28;20069;-65
2022/05/01 03:04:49;;;;;;;21.52;10.93;;;;;;;;;;4999415;28;20054;-65
2022/05/01 03:07:18;;;;;;;20.63;10.88;;;;;;;;;;5003953;28;20137;-65
2022/05/01 03:09:46;;;;;;;21.23;10.70;;;;;;;;;;5005928;28;20141;-65
2022/05/01 03:12:18;;;;;;;24.55;11.90;;;;;;;;;;5003651;28;20038;-66
2022/05/01 03:14:46;;;;;;;24.98;11.57;;;;;;;;;;5002573;28;20161;-66
2022/05/01 03:17:15;;;;;;;20.25;10.75;;;;;;;;;;5003275;28;20077;-65
2022/05/01 03:22:32;;;;;;;21.13;10.82;;;;;;;;;;5003832;28;20141;-66
2022/05/01 03:25:00;;;;;;;19.38;10.35;;;;;;;;;;5003930;28;20125;-66
2022/05/01 03:27:29;;;;;;;21.08;10.98;;;;;;;;;;5003963;28;20856;-66
2022/05/01 03:32:51;;;;;;;22.10;11.00;;;;;;;;;;4974667;28;20145;-65
2022/05/01 03:35:20;;;;;;;21.13;10.65;;;;;;;;;;4992968;28;20137;-66
2022/05/01 03:37:50;;;;;;;21.75;11.18;;;;;;;;;;4999983;28;20397;-65
2022/05/01 03:40:18;;;;;;;20.38;10.07;;;;;;;;;;5005632;28;20545;-66
2022/05/01 03:42:47;;;;;;;20.50;11.38;;;;;;;;;;4999078;28;20098;-65
2022/05/01 03:45:15;;;;;;;24.02;12.02;;;;;;;;;;5004516;28;20052;-66
2022/05/01 03:47:43;;;;;;;19.10;10.60;;;;;;;;;;5000998;28;20097;-65
2022/05/01 03:50:11;;;;;;;23.95;11.88;;;;;;;;;;5000993;28;20085;-66
2022/05/01 03:52:40;;;;;;;25.50;12.45;;;;;;;;;;5005191;28;20078;-66
2022/05/01 03:55:11;;;;;;;24.98;12.15;;;;;;;;;;5002239;28;20078;-65
2022/05/01 03:57:39;;;;;;;23.95;12.70;;;;;;;;;;5001813;28;20058;-66
2022/05/01 04:00:10;;;;;;;24.23;13.55;;;;;;;;;;5005370;28;20078;-65
2022/05/01 04:02:42;;;;;;;23.25;11.82;;;;;;;;;;5002824;28;20050;-65
2022/05/01 04:05:12;;;;;;;27.60;13.07;;;;;;;;;;5007488;28;20129;-66
2022/05/01 04:07:40;;;;;;;26.08;12.65;;;;;;;;;;5006874;28;20145;-66
2022/05/01 04:10:11;;;;;;;24.83;13.20;;;;;;;;;;5004206;28;20137;-65
2022/05/01 04:12:40;;;;;;;26.95;13.52;;;;;;;;;;5009999;28;20132;-66
2022/05/01 04:15:09;;;;;;;24.75;13.23;;;;;;;;;;5010468;28;20128;-66
2022/05/01 04:17:38;;;;;;;27.13;13.57;;;;;;;;;;5010681;28;20497;-66
2022/05/01 04:20:08;;;;;;;25.85;12.88;;;;;;;;;;5003579;28;20049;-66
2022/05/01 04:22:37;;;;;;;25.45;13.00;;;;;;;;;;5009892;28;20057;-66
2022/05/01 04:25:06;;;;;;;28.95;12.82;;;;;;;;;;5005665;28;20128;-66
2022/05/01 04:27:36;;;;;;;30.38;13.35;;;;;;;;;;5009872;28;20129;-66
2022/05/01 04:30:05;;;;;;;30.63;14.60;;;;;;;;;;5003514;28;20073;-66
2022/05/01 04:32:33;;;;;;;30.38;14.45;;;;;;;;;;5005452;28;20521;-66
2022/05/01 04:35:01;;;;;;;29.85;14.05;;;;;;;;;;5007156;28;20514;-66
2022/05/01 04:37:29;;;;;;;29.00;14.13;;;;;;;;;;5008513;28;20204;-65
2022/05/01 04:40:00;;;;;;;32.42;15.98;;;;;;;;;;5009817;28;20046;-66
2022/05/01 04:42:28;;;;;;;29.40;14.38;;;;;;;;;;5007326;28;20490;-65
2022/05/01 04:44:58;;;;;;;33.97;14.45;;;;;;;;;;5008644;28;20060;-65
2022/05/01 04:47:26;;;;;;;31.10;14.63;;;;;;;;;;5003571;28;20104;-65
2022/05/01 04:49:55;;;;;;;31.38;14.07;;;;;;;;;;5010583;28;20081;-66
2022/05/01 04:52:23;;;;;;;28.45;13.40;;;;;;;;;;5008613;28;20125;-66
2022/05/01 04:54:51;;;;;;;33.33;14.00;;;;;;;;;;5006428;28;20597;-66
2022/05/01 04:57:19;;;;;;;28.55;14.73;;;;;;;;;;5003653;28;20350;-65
2022/05/01 04:59:48;;;;;;;30.30;13.93;;;;;;;;;;5002686;28;20136;-66
2022/05/01 05:02:18;;;;;;;31.95;13.85;;;;;;;;;;5002173;28;20045;-65
2022/05/01 05:04:46;;;;;;;30.40;14.00;;;;;;;;;;5008193;28;20538;-64
2022/05/01 05:07:15;;;;;;;31.77;14.50;;;;;;;;;;5005015;28;20046;-65
2022/05/01 05:09:54;;;;;;;31.20;13.85;;;;;;;;;;5008073;28;20061;-66
2022/05/01 05:12:23;;;;;;;29.80;14.45;;;;;;;;;;5005331;28;20474;-65
2022/05/01 05:14:54;;;;;;;30.95;14.82;;;;;;;;;;5006725;28;20092;-65
2022/05/01 05:17:24;;;;;;;31.85;14.45;;;;;;;;;;5005482;28;20482;-65
2022/05/01 05:19:52;;;;;;;33.40;14.13;;;;;;;;;;5005994;28;20093;-66
2022/05/01 05:22:21;;;;;;;32.47;14.55;;;;;;;;;;5005029;28;20104;-65
2022/05/01 05:24:49;;;;;;;33.50;15.75;;;;;;;;;;5010369;28;20045;-65
2022/05/01 05:27:20;;;;;;;33.03;15.10;;;;;;;;;;5007924;28;20128;-65
2022/05/01 05:29:48;;;;;;;32.10;14.38;;;;;;;;;;5005723;28;20050;-65
2022/05/01 05:32:17;;;;;;;31.63;14.60;;;;;;;;;;5002184;28;20050;-65
2022/05/01 05:34:47;;;;;;;31.15;14.95;;;;;;;;;;5003345;28;20045;-65
2022/05/01 05:37:15;;;;;;;32.13;14.68;;;;;;;;;;5007105;28;20140;-65
2022/05/01 05:39:43;;;;;;;34.50;15.27;;;;;;;;;;5007388;28;20090;-65
2022/05/01 05:42:12;;;;;;;33.30;15.07;;;;;;;;;;5007390;28;20092;-66
2022/05/01 05:44:42;;;;;;;32.17;14.90;;;;;;;;;;5008295;28;20132;-66
2022/05/01 05:47:11;;;;;;;31.70;15.43;;;;;;;;;;5007697;28;20158;-66
2022/05/01 05:49:39;;;;;;;34.83;14.73;;;;;;;;;;5001088;28;20529;-65
2022/05/01 05:52:09;;;;;;;34.85;15.60;;;;;;;;;;5003885;28;20082;-65
2022/05/01 05:54:39;;;;;;;27.80;13.40;;;;;;;;;;5000205;28;20519;-65
2022/05/01 05:57:07;;;;;;;35.35;15.05;;;;;;;;;;5004854;28;20050;-67
2022/05/01 05:59:36;;;;;;;32.47;14.32;;;;;;;;;;5004487;28;20068;-66
2022/05/01 06:02:04;;;;;;;31.45;14.13;;;;;;;;;;5006592;28;20132;-67
2022/05/01 06:04:33;;;;;;;36.13;15.10;;;;;;;;;;5006676;28;20140;-67
2022/05/01 06:07:01;;;;;;;29.92;13.85;;;;;;;;;;5005737;28;20604;-66
2022/05/01 06:09:31;;;;;;;33.95;14.38;;;;;;;;;;5004810;28;20458;-66
2022/05/01 06:11:59;;;;;;;31.25;14.73;;;;;;;;;;5007764;28;20125;-66
2022/05/01 06:14:27;;;;;;;30.13;14.35;;;;;;;;;;5002316;28;20134;-66
2022/05/01 06:16:55;;;;;;;41.25;15.55;;;;;;;;;;5002718;28;20129;-66
2022/05/01 06:19:24;;;;;;;30.83;14.90;;;;;;;;;;5000577;28;20125;-66
2022/05/01 06:21:52;;;;;;;36.40;15.40;;;;;;;;;;5003562;28;21658;-67
2022/05/01 06:24:20;;;;;;;34.00;15.73;;;;;;;;;;5006195;28;20576;-66
2022/05/01 06:26:50;;;;;;;34.25;13.63;;;;;;;;;;5000120;28;20056;-67
2022/05/01 06:29:18;;;;;;;30.60;14.15;;;;;;;;;;5001873;28;20097;-66
2022/05/01 06:31:47;;;;;;;37.58;15.80;;;;;;;;;;5001509;28;20112;-66
2022/05/01 06:34:16;;;;;;;32.58;14.15;;;;;;;;;;5004750;28;20048;-67
2022/05/01 06:36:44;;;;;;;33.13;15.80;;;;;;;;;;5000068;28;20162;-67
2022/05/01 06:39:14;;;;;;;29.40;14.15;;;;;;;;;;5003269;28;20046;-67
2022/05/01 06:41:42;;;;;;;35.40;14.25;;;;;;;;;;5006324;28;20638;-67
2022/05/01 06:44:12;;;;;;;33.60;15.73;;;;;;;;;;5001630;28;20054;-67
2022/05/01 06:46:40;;;;;;;32.92;14.77;;;;;;;;;;5008005;28;20136;-67
2022/05/01 06:49:09;;;;;;;31.25;15.10;;;;;;;;;;5002352;28;20104;-66
2022/05/01 06:51:37;;;;;;;33.25;14.27;;;;;;;;;;5006838;28;20057;-66
2022/05/01 06:54:07;;;;;;;34.65;16.33;;;;;;;;;;5005664;28;20124;-66
2022/05/01 06:56:35;;;;;;;34.03;15.10;;;;;;;;;;5008363;28;20050;-66
2022/05/01 06:59:04;;;;;;;33.15;14.68;;;;;;;;;;5006904;28;20180;-66
2022/05/01 07:01:33;;;;;;;37.20;16.75;;;;;;;;;;5007827;28;20141;-66
2022/05/01 07:04:02;;;;;;;29.70;14.13;;;;;;;;;;5005302;28;20070;-66
2022/05/01 07:06:30;;;;;;;31.90;14.45;;;;;;;;;;5008089;28;20046;-66
2022/05/01 07:08:58;;;;;;;34.53;13.98;;;;;;;;;;4989742;28;20073;-66
2022/05/01 07:11:27;;;;;;;29.88;14.05;;;;;;;;;;5007189;28;20136;-66
2022/05/01 07:13:55;;;;;;;31.73;14.43;;;;;;;;;;5008564;28;20125;-66
2022/05/01 07:16:23;;;;;;;33.80;14.25;;;;;;;;;;4993660;28;20534;-66
2022/05/01 07:18:53;;;;;;;37.15;15.77;;;;;;;;;;5000684;28;20149;-66
2022/05/01 07:21:21;;;;;;;30.55;13.52;;;;;;;;;;5003562;28;20045;-66
2022/05/01 07:23:50;;;;;;;33.72;14.90;;;;;;;;;;5001548;28;20038;-66
2022/05/01 07:26:18;;;;;;;32.78;14.38;;;;;;;;;;5007038;28;20526;-66
2022/05/01 07:28:47;;;;;;;31.83;14.82;;;;;;;;;;5004142;28;20151;-67
2022/05/01 07:31:15;;;;;;;33.28;14.48;;;;;;;;;;5004906;28;20067;-66
2022/05/01 07:33:44;;;;;;;36.22;16.45;;;;;;;;;;5003051;28;20093;-66
2022/05/01 07:36:13;;;;;;;30.90;14.52;;;;;;;;;;5004479;28;20049;-66
2022/05/01 07:38:42;;;;;;;35.50;14.70;;;;;;;;;;4994106;28;20066;-66
2022/05/01 07:41:10;;;;;;;32.28;14.68;;;;;;;;;;5008021;28;20170;-66
2022/05/01 07:43:39;;;;;;;37.22;16.33;;;;;;;;;;4992669;28;20137;-65
2022/05/01 07:46:08;;;;;;;34.70;15.55;;;;;;;;;;4996307;28;20054;-66
2022/05/01 07:48:36;;;;;;;38.78;16.35;;;;;;;;;;4998254;28;20051;-67
2022/05/01 07:51:08;;;;;;;36.75;14.48;;;;;;;;;;4999538;28;20054;-65
2022/05/01 07:53:38;;;;;;;34.40;14.90;;;;;;;;;;5000110;28;20076;-67
2022/05/01 07:56:06;;;;;;;31.30;13.90;;;;;;;;;;5005862;28;20132;-66
2022/05/01 07:58:35;;;;;;;34.28;14.65;;;;;;;;;;5006510;28;20060;-65
2022/05/01 08:01:06;;;;;;;40.17;16.40;;;;;;;;;;5005234;28;20509;-65
2022/05/01 08:06:22;;;;;;;33.33;14.52;;;;;;;;;;4992841;28;20050;-65
2022/05/01 08:08:52;;;;;;;32.17;14.95;;;;;;;;;;4989246;28;20170;-65
2022/05/01 08:11:21;;;;;;;31.45;14.48;;;;;;;;;;5007430;28;20531;-65
2022/05/01 08:13:49;;;;;;;30.65;14.50;;;;;;;;;;4998049;28;20137;-65
2022/05/01 08:16:18;;;;;;;38.65;16.67;;;;;;;;;;4999891;28;20070;-66
2022/05/01 08:21:32;;;;;;;36.85;15.85;;;;;;;;;;5007268;28;20132;-66
2022/05/01 08:24:02;;;;;;;35.28;16.02;;;;;;;;;;5000046;28;20593;-65
2022/05/01 08:26:33;;;;;;;37.90;16.98;;;;;;;;;;5000980;28;20046;-65
2022/05/01 08:29:02;;;;;;;37.53;15.38;;;;;;;;;;5003565;28;20165;-67
2022/05/01 08:31:30;;;;;;;36.20;15.20;;;;;;;;;;5007198;28;20143;-65
2022/05/01 08:33:58;;;;;;;36.20;16.00;;;;;;;;;;5003190;28;20058;-65
2022/05/01 08:36:29;;;;;;;32.85;14.70;;;;;;;;;;5007495;28;20139;-65
2022/05/01 08:38:57;;;;;;;33.85;14.93;;;;;;;;;;4998523;28;20084;-65
2022/05/01 08:41:30;;;;;;;36.33;16.17;;;;;;;;;;5007745;28;20423;-66
2022/05/01 08:43:58;;;;;;;40.25;16.30;;;;;;;;;;5000264;28;20049;-67
2022/05/01 08:46:42;;;;;;;37.08;15.02;;;;;;;;;;5004255;28;20603;-66
2022/05/01 08:49:10;;;;;;;33.70;14.52;;;;;;;;;;4983594;28;20064;-68
2022/05/01 08:51:39;;;;;;;33.08;15.07;;;;;;;;;;4998568;28;20556;-66
2022/05/01 08:54:08;;;;;;;27.88;13.38;;;;;;;;;;5005348;28;20129;-67
2022/05/01 08:56:40;;;;;;;31.38;13.57;;;;;;;;;;5003974;28;20077;-69
2022/05/01 08:59:10;;;;;;;33.00;14.73;;;;;;;;;;4999280;28;20050;-67
2022/05/01 09:01:39;;;;;;;34.35;14.40;;;;;;;;;;5000814;28;20042;-68
2022/05/01 09:04:09;;;;;;;33.42;14.57;;;;;;;;;;5001362;28;20042;-67
2022/05/01 09:06:38;;;;;;;38.20;14.35;;;;;;;;;;5003793;28;20136;-67
2022/05/01 09:09:07;;;;;;;30.73;14.23;;;;;;;;;;4998339;28;20763;-66
2022/05/01 09:14:24;;;;;;;29.70;13.55;;;;;;;;;;5002268;28;20541;-66
2022/05/01 09:17:11;;;;;;;29.58;13.23;;;;;;;;;;5006817;28;20111;-66
2022/05/01 09:19:42;;;;;;;30.45;12.55;;;;;;;;;;4998384;28;20084;-67
2022/05/01 09:22:12;;;;;;;30.75;12.73;;;;;;;;;;5001209;28;20077;-66
2022/05/01 09:24:41;;;;;;;27.90;12.18;;;;;;;;;;5002826;28;20085;-66
2022/05/01 09:27:30;;;;;;;31.77;13.43;;;;;;;;;;4999991;28;20053;-66
2022/05/01 09:30:09;;;;;;;29.52;12.98;;;;;;;;;;5012744;28;20054;-66
2022/05/01 09:32:38;;;;;;;29.40;13.65;;;;;;;;;;5002530;28;20185;-66
2022/05/01 09:35:08;;;;;;;24.80;11.95;;;;;;;;;;4994819;28;20053;-68
2022/05/01 09:37:36;;;;;;;27.60;12.77;;;;;;;;;;5005747;28;20089;-66
2022/05/01 09:40:05;;;;;;;34.17;13.85;;;;;;;;;;4993989;28;20137;-66
2022/05/01 09:42:35;;;;;;;40.58;15.43;;;;;;;;;;4994177;28;20047;-67
2022/05/01 09:45:05;;;;;;;30.83;13.18;;;;;;;;;;4997425;28;20469;-66
2022/05/01 09:47:39;;;;;;;34.58;14.70;;;;;;;;;;4999415;28;20216;-66
2022/05/01 09:50:08;;;;;;;33.33;13.98;;;;;;;;;;4999928;28;20449;-66
2022/05/01 09:52:55;;;;;;;33.00;14.32;;;;;;;;;;5000514;28;20058;-66
2022/05/01 09:55:23;;;;;;;34.20;14.35;;;;;;;;;;5002571;28;20077;-66
2022/05/01 09:58:02;;;;;;;34.53;15.35;;;;;;;;;;5006725;28;20149;-65
2022/05/01 10:00:38;;;;;;;31.02;14.68;;;;;;;;;;5005206;28;20096;-66
2022/05/01 10:03:22;;;;;;;35.45;15.80;;;;;;;;;;4993582;28;20050;-66
2022/05/01 10:05:51;;;;;;;36.05;15.10;;;;;;;;;;5005504;28;20077;-68
2022/05/01 10:08:20;;;;;;;32.85;14.15;;;;;;;;;;5003498;28;20486;-66
2022/05/01 10:10:49;;;;;;;34.08;14.98;;;;;;;;;;4991802;28;20726;-66
2022/05/01 10:13:18;;;;;;;34.42;15.82;;;;;;;;;;5004567;28;20060;-67
2022/05/01 10:16:08;;;;;;;36.40;15.73;;;;;;;;;;5001911;28;20156;-67
2022/05/01 10:18:38;;;;;;;33.03;14.30;;;;;;;;;;5011524;28;20379;-66
2022/05/01 10:21:29;;;;;;;33.10;14.30;;;;;;;;;;5000170;28;20076;-66
2022/05/01 10:23:58;;;;;;;33.40;14.77;;;;;;;;;;5001109;28;20046;-66
2022/05/01 10:26:28;;;;;;;36.50;14.60;;;;;;;;;;4998964;28;20156;-66
2022/05/01 10:29:22;;;;;;;32.80;15.10;;;;;;;;;;5002005;28;20489;-66
2022/05/01 10:35:36;;;;;;;31.77;14.10;;;;;;;;;;4994515;28;20053;-66
2022/05/01 10:38:09;;;;;;;32.65;15.35;;;;;;;;;;5001939;28;20065;-65
2022/05/01 10:40:40;;;;;;;36.13;14.90;;;;;;;;;;5004356;28;20050;-66
2022/05/01 10:43:27;;;;;;;30.15;13.85;;;;;;;;;;4999903;28;20147;-65
2022/05/01 10:45:55;;;;;;;35.08;14.10;;;;;;;;;;4997670;28;20081;-65
2022/05/01 10:48:31;;;;;;;32.45;15.63;;;;;;;;;;4996714;28;20097;-66
2022/05/01 10:51:14;;;;;;;33.63;15.18;;;;;;;;;;5008960;28;20085;-65
2022/05/01 10:53:45;;;;;;;31.80;14.68;;;;;;;;;;5001150;28;20053;-65
2022/05/01 10:56:22;;;;;;;32.40;14.65;;;;;;;;;;4999643;28;20049;-65
2022/05/01 10:58:51;;;;;;;32.60;14.30;;;;;;;;;;5004644;28;20069;-65
2022/05/01 11:01:39;;;;;;;33.47;15.05;;;;;;;;;;5005150;28;20082;-64
2022/05/01 11:04:09;;;;;;;34.13;15.75;;;;;;;;;;5007057;28;20054;-67
2022/05/01 11:06:41;;;;;;;32.22;14.75;;;;;;;;;;5006961;28;20101;-65
2022/05/01 11:09:10;;;;;;;32.95;14.82;;;;;;;;;;4990981;28;20048;-66
2022/05/01 11:11:39;;;;;;;30.13;14.68;;;;;;;;;;5008494;28;20050;-65
2022/05/01 11:14:07;;;;;;;32.67;15.20;;;;;;;;;;5005895;28;20073;-65
2022/05/01 11:16:51;;;;;;;33.40;15.27;;;;;;;;;;4998307;28;20108;-64
2022/05/01 11:19:21;;;;;;;30.35;14.68;;;;;;;;;;5005964;28;20049;-64
2022/05/01 11:21:49;;;;;;;27.20;13.75;;;;;;;;;;5006450;28;20054;-64
2022/05/01 11:24:38;;;;;;;28.52;13.45;;;;;;;;;;4999702;28;20474;-65
2022/05/01 11:27:16;;;;;;;25.75;13.23;;;;;;;;;;5004095;28;20050;-65
2022/05/01 11:30:05;;;;;;;25.33;13.75;;;;;;;;;;5006484;28;20073;-65
2022/05/01 11:32:43;;;;;;;29.83;13.32;;;;;;;;;;5002665;28;20486;-65
2022/05/01 11:35:14;;;;;;;31.98;14.60;;;;;;;;;;5005466;28;20084;-65
2022/05/01 11:37:52;;;;;;;26.48;13.45;;;;;;;;;;5002905;28;20077;-65
2022/05/01 11:40:27;;;;;;;29.52;14.38;;;;;;;;;;5002525;28;20128;-65
2022/05/01 11:43:11;;;;;;;29.88;14.23;;;;;;;;;;4994055;28;20077;-65
2022/05/01 11:45:39;;;;;;;30.40;13.65;;;;;;;;;;4995448;28;20057;-65
2022/05/01 11:48:12;;;;;;;29.17;14.30;;;;;;;;;;5001400;28;20160;-66
2022/05/01 11:50:43;;;;;;;26.75;14.50;;;;;;;;;;5002324;28;20050;-65
2022/05/01 11:53:19;;;;;;;26.67;14.32;;;;;;;;;;4997517;28;20078;-65
2022/05/01 12:04:25;;;;;;;30.52;14.27;;;;;;;;;;5002538;28;20430;-67
2022/05/01 12:07:05;;;;;;;25.85;14.40;;;;;;;;;;5000544;28;20133;-65
2022/05/01 12:09:35;;;;;;;24.75;14.23;;;;;;;;;;5004713;28;20129;-66
2022/05/01 12:12:04;;;;;;;25.77;13.50;;;;;;;;;;4995057;28;20279;-65
2022/05/01 12:14:32;;;;;;;24.63;13.65;;;;;;;;;;4998156;28;20536;-65
2022/05/01 12:17:01;;;;;;;22.58;13.05;;;;;;;;;;5003935;28;20054;-67
2022/05/01 12:19:36;;;;;;;25.95;14.45;;;;;;;;;;4995814;28;20350;-66
2022/05/01 12:22:06;;;;;;;25.73;13.02;;;;;;;;;;5003221;28;20086;-65
2022/05/01 12:24:34;;;;;;;26.30;13.32;;;;;;;;;;5001708;28;20399;-67
2022/05/01 12:27:03;;;;;;;23.10;12.77;;;;;;;;;;5008684;28;20140;-66
2022/05/01 12:29:33;;;;;;;24.48;13.18;;;;;;;;;;5009630;28;20053;-66
2022/05/01 12:32:02;;;;;;;23.80;13.18;;;;;;;;;;5001795;28;20045;-66
2022/05/01 12:34:34;;;;;;;21.63;12.55;;;;;;;;;;5007116;28;20526;-65
2022/05/01 12:37:02;;;;;;;24.80;12.20;;;;;;;;;;5000883;28;20173;-66
2022/05/01 12:39:32;;;;;;;26.17;13.10;;;;;;;;;;5006831;28;20045;-66
2022/05/01 12:45:09;;;;;;;25.33;12.05;;;;;;;;;;5008158;28;20484;-66
2022/05/01 12:47:39;;;;;;;23.45;13.05;;;;;;;;;;5007863;28;20497;-66
2022/05/01 12:50:08;;;;;;;21.90;11.70;;;;;;;;;;5010443;28;20095;-66
2022/05/01 12:52:37;;;;;;;22.58;12.80;;;;;;;;;;5002712;28;20150;-66
2022/05/01 12:55:09;;;;;;;21.83;12.55;;;;;;;;;;5007763;28;20049;-66
2022/05/01 12:57:40;;;;;;;22.88;12.40;;;;;;;;;;5008963;28;20061;-68
2022/05/01 13:00:09;;;;;;;21.90;11.98;;;;;;;;;;5016312;28;20057;-66
2022/05/01 13:02:37;;;;;;;27.63;12.68;;;;;;;;;;5005925;28;20057;-67
2022/05/01 13:05:07;;;;;;;24.40;13.13;;;;;;;;;;5003443;28;20078;-66
2022/05/01 13:07:40;;;;;;;24.92;12.02;;;;;;;;;;5009197;28;20054;-66
2022/05/01 13:10:18;;;;;;;22.80;12.20;;;;;;;;;;5005387;28;20054;-68
2022/05/01 13:12:57;;;;;;;28.17;13.05;;;;;;;;;;5006168;28;20053;-67
2022/05/01 13:15:37;;;;;;;23.13;12.45;;;;;;;;;;5003591;28;20172;-65
2022/05/01 13:18:06;;;;;;;21.00;11.82;;;;;;;;;;5000860;28;20500;-66
2022/05/01 13:20:34;;;;;;;25.63;12.15;;;;;;;;;;5009422;28;20092;-67
2022/05/01 13:23:03;;;;;;;21.70;11.25;;;;;;;;;;4998294;28;20112;-66
2022/05/01 13:25:33;;;;;;;21.15;11.70;;;;;;;;;;5001756;28;20616;-66
2022/05/01 13:28:01;;;;;;;22.33;12.32;;;;;;;;;;5005183;28;20046;-66
2022/05/01 13:30:30;;;;;;;21.67;11.70;;;;;;;;;;5007208;28;20050;-66
2022/05/01 13:32:58;;;;;;;23.60;12.85;;;;;;;;;;5006991;28;20042;-66
2022/05/01 13:35:26;;;;;;;22.77;12.35;;;;;;;;;;5007991;28;20457;-66
2022/05/01 13:37:55;;;;;;;24.58;12.77;;;;;;;;;;5008674;28;20069;-67
2022/05/01 13:45:57;;;;;;;23.33;11.95;;;;;;;;;;5006736;28;20053;-67
2022/05/01 13:48:25;;;;;;;21.33;12.45;;;;;;;;;;5005881;28;20042;-67
2022/05/01 13:50:53;;;;;;;21.40;11.27;;;;;;;;;;5011433;28;20133;-66
2022/05/01 13:53:24;;;;;;;21.73;11.73;;;;;;;;;;5005072;28;20137;-66
2022/05/01 13:55:53;;;;;;;25.05;13.02;;;;;;;;;;5009867;28;20136;-67
2022/05/01 13:58:22;;;;;;;25.42;12.70;;;;;;;;;;4998860;28;20135;-66
2022/05/01 14:00:51;;;;;;;23.75;13.02;;;;;;;;;;5000039;28;20112;-66
2022/05/01 14:03:19;;;;;;;25.98;12.27;;;;;;;;;;5002044;28;20056;-67
2022/05/01 14:05:47;;;;;;;26.83;13.18;;;;;;;;;;5005639;28;20049;-66
2022/05/01 14:08:16;;;;;;;26.50;13.57;;;;;;;;;;4996550;28;20570;-66
2022/05/01 14:10:44;;;;;;;24.13;13.10;;;;;;;;;;4999072;28;20054;-66
2022/05/01 14:13:13;;;;;;;27.90;12.63;;;;;;;;;;5005586;28;20046;-67
2022/05/01 14:15:43;;;;;;;28.35;13.60;;;;;;;;;;5004283;28;20053;-66
2022/05/01 14:18:12;;;;;;;27.10;13.88;;;;;;;;;;4996618;28;20514;-66
2022/05/01 14:20:40;;;;;;;23.52;12.38;;;;;;;;;;5000403;28;20074;-68
2022/05/01 14:23:09;;;;;;;25.10;13.30;;;;;;;;;;5009165;28;20069;-67
2022/05/01 14:25:38;;;;;;;25.50;14.63;;;;;;;;;;5006685;28;20431;-67
2022/05/01 14:28:07;;;;;;;24.73;13.82;;;;;;;;;;5004480;28;20485;-66
2022/05/01 14:30:36;;;;;;;23.92;13.40;;;;;;;;;;5004770;28;20311;-68
2022/05/01 14:33:09;;;;;;;25.48;14.18;;;;;;;;;;5008507;28;20054;-68
2022/05/01 14:35:39;;;;;;;25.30;13.10;;;;;;;;;;5009449;28;20156;-66
2022/05/01 14:38:09;;;;;;;25.60;13.52;;;;;;;;;;5008882;28;20092;-67
2022/05/01 14:40:39;;;;;;;24.50;12.80;;;;;;;;;;5006258;28;20081;-67
2022/05/01 14:43:09;;;;;;;25.48;13.55;;;;;;;;;;5008901;28;20053;-66
2022/05/01 14:45:41;;;;;;;22.67;12.43;;;;;;;;;;5004107;28;20057;-67
2022/05/01 14:48:15;;;;;;;23.75;13.27;;;;;;;;;;4997875;28;20453;-67
2022/05/01 14:50:46;;;;;;;24.27;12.32;;;;;;;;;;5007579;28;20508;-66
2022/05/01 14:53:14;;;;;;;27.40;13.98;;;;;;;;;;4998530;28;20137;-67
2022/05/01 14:55:44;;;;;;;25.55;13.55;;;;;;;;;;4998467;28;20138;-66
2022/05/01 15:06:30;;;;;;;20.83;11.25;;;;;;;;;;5006744;28;20462;-67
2022/05/01 15:09:03;;;;;;;23.95;13.20;;;;;;;;;;5003886;28;20128;-67
2022/05/01 15:11:31;;;;;;;23.15;12.60;;;;;;;;;;5007717;28;20449;-67
2022/05/01 15:14:00;;;;;;;22.20;12.27;;;;;;;;;;5006020;28;20663;-67
2022/05/01 15:16:30;;;;;;;25.48;13.18;;;;;;;;;;5009476;28;20100;-66
2022/05/01 15:19:07;;;;;;;21.88;11.65;;;;;;;;;;5004687;28;20042;-67
2022/05/01 15:24:28;;;;;;;26.13;12.60;;;;;;;;;;5008266;28;20080;-67
2022/05/01 15:26:59;;;;;;;22.30;13.52;;;;;;;;;;5005564;28;20050;-67
2022/05/01 15:29:30;;;;;;;20.38;11.45;;;;;;;;;;5005198;28;20124;-66
2022/05/01 15:31:59;;;;;;;22.38;12.93;;;;;;;;;;5005811;28;20069;-66